Curtis, NE (69025)

8:21 PM CDT on August 28, 2014 (GMT -0500)
APRSWXNET Hayes Center NE US | Change Station
CLOSE
Current Station
Personal Weather Station
Location: Hayes Center, NE
Elevation: 3159 ft
Nearby Weather Stations

Elev 3159 ft 40.63 °N, 100.86 °W | Updated 48 minutes ago

Partly Cloudy
Partly Cloudy
76 °F
Feels Like 78 °F
N
7
Wind Variable Wind from North
Gusts 16.0 mph

Today
High -- | Low -- °F
--% Chance of Precip.
Yesterday
High -- | Low -- °F
Precip. -- in
7:05 AM 8:20 PM
Waxing Crescent, 11% visible
Pressure 29.83 in
Visibility 10.0 miles
Clouds Clear
Heat Index 78 °F
Dew Point 62 °F
Humidity 62%
Rainfall 0.37 in
Snow Depth Not available.
UV 0 out of 12
Pollen 5.70 out of 12
Air Quality Not available.
Flu Activity Not available.
METAR KMCK 290053Z AUTO 29007KT 10SM CLR 22/17 A2988 RMK AO2 SLP100 T02220172

More Conditions Fewer Conditions

Pressure 29.83 in
Visibility 10.0 miles
Clouds Clear
Heat Index 78 °F
Dew Point 62 °F
Humidity 62%
Rainfall 0.37 in
Snow Depth Not available.
UV 0 out of 12
Pollen 5.70 out of 12
Air Quality Not available.
Flu Activity Not available.
METAR KMCK 290053Z AUTO 29007KT 10SM CLR 22/17 A2988 RMK AO2 SLP100 T02220172

More Conditions Fewer Conditions

10-Day Weather Forecast

Almanac

Astronomy

Aug. 28, 2014 Rise Set
Actual Time 7:05 AM CDT 8:20 PM CDT
Civil Twilight 6:36 AM CDT 8:48 PM CDT
Nautical Twilight 6:03 AM CDT 9:22 PM CDT
Astronomical Twilight 5:27 AM CDT 9:57 PM CDT
Moon 10:00 AM CDT (8/28) 9:44 PM CDT (8/28)
Length of Visible Light 14h 11m
Length of Day
13h 15m
Tomorrow will be 2m 33s shorter.
Waxing Crescent, 11% of the Moon is Illuminated
Today
Waxing Crescent
Sep 2
First Quarter
Sep 8
Full
Sep 15
Last Quarter
Sep 24
New

Today's Extremes

State Highs State Lows

Community

WunderPhotos

Upload Photos

1,748,126 photos uploaded!

Nearby

Snow Depth

Station Depth Elevation
No new snow has been reported.

Earthquake Activity

City Distance Mag. Time & Date
No recent earthquake activity has been reported nearby.
Minimum magnitude displayed is 2.5.

Coastal Water Temperatures

Place Temperature
No Stations Reporting

Nearby Weather Stations